Time;durP1;ratioP1;P1;durP2;ratioP2;P2;SDS_P1;SDS_P2;PMS_P1;PMS_P2;Temp;Humidity;BMP_temperature;BMP_pressure;BME280_temperature;BME280_humidity;BME280_pressure;Samples;Min_cycle;Max_cycle;Signal;HPM_P1;HPM_P2
2023/01/23 07:23:03;;;;;;;26.92;12.32;;;2.00;99.90;;;;;;5080932;27;20702;-60
2023/01/23 07:25:29;;;;;;;25.80;14.23;;;2.00;99.90;;;;;;5087548;28;20134;-61
2023/01/23 07:27:54;;;;;;;29.73;15.80;;;2.10;99.90;;;;;;5087816;28;20059;-60
2023/01/23 07:30:20;;;;;;;33.13;15.52;;;2.20;99.90;;;;;;5088024;28;20016;-60
2023/01/23 07:32:46;;;;;;;32.22;16.33;;;2.30;99.90;;;;;;5086992;28;20074;-61
2023/01/23 07:35:12;;;;;;;35.20;16.92;;;2.40;99.90;;;;;;5088079;28;20024;-61
2023/01/23 07:37:37;;;;;;;32.03;14.50;;;2.40;99.90;;;;;;5087912;28;20020;-62
2023/01/23 07:40:03;;;;;;;35.33;16.50;;;2.50;99.90;;;;;;5087907;28;20033;-61
2023/01/23 07:42:29;;;;;;;38.28;15.85;;;2.60;99.90;;;;;;5088061;28;20027;-61
2023/01/23 07:44:54;;;;;;;28.65;14.45;;;2.60;99.90;;;;;;5085847;28;20575;-61
2023/01/23 07:47:20;;;;;;;30.63;15.48;;;2.70;99.90;;;;;;5086596;28;20024;-63
2023/01/23 07:49:45;;;;;;;34.22;16.35;;;2.70;99.90;;;;;;5088038;28;20059;-61
2023/01/23 07:52:11;;;;;;;36.38;17.10;;;2.70;99.90;;;;;;5090149;28;20024;-61
2023/01/23 07:54:37;;;;;;;31.08;15.98;;;2.80;99.90;;;;;;5087329;28;20079;-60
2023/01/23 07:57:02;;;;;;;34.75;15.88;;;2.80;99.90;;;;;;5086068;28;20016;-61
2023/01/23 07:59:28;;;;;;;32.53;15.95;;;2.80;99.90;;;;;;5106434;28;20112;-61
2023/01/23 08:01:53;;;;;;;35.30;16.25;;;2.90;99.90;;;;;;5104139;28;20387;-61
2023/01/23 08:04:19;;;;;;;33.70;16.42;;;2.90;99.90;;;;;;5104021;28;20022;-61
2023/01/23 08:06:45;;;;;;;36.08;15.85;;;2.90;99.90;;;;;;5087764;28;20209;-62
2023/01/23 08:09:11;;;;;;;31.88;16.02;;;2.90;99.90;;;;;;5087298;28;20112;-62
2023/01/23 08:11:37;;;;;;;33.20;14.55;;;3.00;99.90;;;;;;5087550;28;20020;-62
2023/01/23 08:14:03;;;;;;;36.03;17.52;;;3.00;99.90;;;;;;5084930;28;20610;-62
2023/01/23 08:16:28;;;;;;;35.33;16.23;;;3.00;99.90;;;;;;5088041;28;20020;-61
2023/01/23 08:18:54;;;;;;;38.05;17.30;;;3.00;99.90;;;;;;5092769;28;20498;-62
2023/01/23 08:21:19;;;;;;;37.38;17.95;;;3.10;99.90;;;;;;5107538;28;20050;-63
2023/01/23 08:23:45;;;;;;;37.58;16.60;;;3.10;99.90;;;;;;5107740;28;20407;-62
2023/01/23 08:26:13;;;;;;;38.38;17.98;;;3.10;99.90;;;;;;5106411;28;20028;-61
2023/01/23 08:28:40;;;;;;;34.75;16.73;;;3.10;99.90;;;;;;5091401;28;20027;-61
2023/01/23 08:31:07;;;;;;;36.10;16.23;;;3.10;99.90;;;;;;5087237;28;20099;-61
2023/01/23 08:33:34;;;;;;;34.20;16.40;;;3.20;99.90;;;;;;5077082;28;20024;-61
2023/01/23 08:36:00;;;;;;;29.65;15.50;;;3.20;99.90;;;;;;5072926;28;20032;-61
2023/01/23 08:38:26;;;;;;;36.67;16.63;;;3.20;99.90;;;;;;5073934;28;20380;-63
2023/01/23 08:40:54;;;;;;;36.63;16.45;;;3.20;99.90;;;;;;5074525;28;20103;-62
2023/01/23 08:43:20;;;;;;;36.20;16.42;;;3.30;99.90;;;;;;5074547;28;20043;-62
2023/01/23 08:45:52;;;;;;;35.85;17.85;;;3.20;99.90;;;;;;5074714;28;20024;-62
2023/01/23 08:48:19;;;;;;;30.52;14.95;;;3.30;99.90;;;;;;5074746;28;20036;-62
2023/01/23 08:50:45;;;;;;;33.28;16.83;;;3.30;99.90;;;;;;5074449;28;20095;-62
2023/01/23 16:26:28;;;;;;;24.17;10.85;;;3.70;99.90;;;;;;5109372;27;20319;-62
2023/01/23 16:28:54;;;;;;;22.20;11.85;;;3.60;99.90;;;;;;5108384;28;20024;-62
2023/01/23 16:31:21;;;;;;;28.50;12.90;;;3.70;99.90;;;;;;5108712;28;20016;-62
2023/01/23 16:33:47;;;;;;;23.55;12.93;;;3.80;99.90;;;;;;5120540;28;20100;-61
2023/01/23 16:36:19;;;;;;;24.75;13.18;;;3.90;99.90;;;;;;5109292;28;20468;-61
2023/01/23 16:38:55;;;;;;;24.00;12.45;;;4.00;99.90;;;;;;5108859;28;20069;-63
2023/01/23 16:41:21;;;;;;;27.83;14.30;;;4.10;99.90;;;;;;5109100;28;20016;-62
2023/01/23 16:43:46;;;;;;;25.73;13.13;;;4.20;99.90;;;;;;5109437;28;20030;-63
2023/01/23 16:46:12;;;;;;;26.60;14.07;;;4.20;99.90;;;;;;5107123;28;20036;-62
2023/01/23 16:48:38;;;;;;;28.40;13.98;;;4.30;99.90;;;;;;5107530;28;20020;-62
2023/01/23 16:51:16;;;;;;;23.90;12.05;;;4.30;99.90;;;;;;5109123;28;20052;-62
2023/01/23 16:53:47;;;;;;;27.80;14.48;;;4.30;99.90;;;;;;5110268;28;20028;-62
2023/01/23 16:56:21;;;;;;;;;;;4.30;99.90;;;;;;5108278;28;20016;-61
2023/01/23 16:58:47;;;;;;;25.77;12.00;;;4.40;99.90;;;;;;5109502;28;19916;-62
2023/01/23 17:01:19;;;;;;;23.23;11.07;;;4.40;99.90;;;;;;5111926;28;20038;-61
2023/01/23 17:03:46;;;;;;;;;;;4.40;99.90;;;;;;5107826;28;20020;-64
2023/01/23 17:06:14;;;;;;;24.30;12.75;;;4.40;99.90;;;;;;5108075;28;19916;-61
2023/01/23 17:08:40;;;;;;;21.60;12.32;;;4.40;99.90;;;;;;5107222;28;20035;-62
2023/01/23 17:11:06;;;;;;;22.48;11.82;;;4.40;99.90;;;;;;5107875;28;20020;-64
2023/01/23 17:13:34;;;;;;;20.88;10.57;;;4.40;99.90;;;;;;5094615;28;21284;-64
2023/01/23 17:16:02;;;;;;;21.58;12.20;;;4.40;99.90;;;;;;5091752;28;20484;-62
2023/01/23 17:18:31;;;;;;;23.58;11.40;;;4.40;99.90;;;;;;5105718;28;20016;-63
2023/01/23 17:20:57;;;;;;;23.88;12.32;;;4.50;99.90;;;;;;5107622;28;20108;-63
2023/01/23 17:23:24;;;;;;;24.92;12.40;;;4.50;99.90;;;;;;5107483;28;20050;-61
2023/01/23 17:25:51;;;;;;;20.67;10.80;;;4.50;99.90;;;;;;5109395;28;20065;-62
2023/01/23 17:28:18;;;;;;;20.77;11.05;;;4.50;99.90;;;;;;5105964;28;20378;-62
2023/01/23 17:30:47;;;;;;;26.10;11.93;;;4.50;99.90;;;;;;5107828;28;20391;-62
2023/01/23 17:33:23;;;;;;;21.35;11.05;;;4.50;99.90;;;;;;5107734;28;20092;-62
2023/01/23 17:35:50;;;;;;;20.90;10.35;;;4.50;99.90;;;;;;5084905;28;20052;-62
2023/01/23 17:38:18;;;;;;;20.88;11.32;;;4.50;99.90;;;;;;5107599;28;20020;-62
2023/01/23 17:40:44;;;;;;;20.42;11.48;;;4.50;99.90;;;;;;5112440;28;20080;-61
2023/01/23 17:43:11;;;;;;;21.70;11.05;;;4.50;99.90;;;;;;5112852;28;20543;-62
2023/01/23 17:45:38;;;;;;;20.05;10.25;;;4.50;99.90;;;;;;5113011;28;20549;-62
2023/01/23 17:48:05;;;;;;;21.17;11.23;;;4.50;99.90;;;;;;5112501;28;20028;-63
2023/01/23 17:50:30;;;;;;;21.38;11.10;;;4.50;99.90;;;;;;5113036;28;20452;-63
2023/01/23 17:52:56;;;;;;;19.05;10.80;;;4.50;99.90;;;;;;5114672;28;20047;-65
2023/01/23 17:55:24;;;;;;;20.90;10.68;;;4.50;99.90;;;;;;5113559;28;20380;-66
2023/01/23 17:57:50;;;;;;;22.60;10.52;;;4.50;99.90;;;;;;5113026;28;20019;-64
2023/01/23 18:00:17;;;;;;;17.83;9.60;;;4.50;99.90;;;;;;5114639;28;20027;-65
2023/01/23 18:02:52;;;;;;;21.77;10.73;;;4.50;99.90;;;;;;5113696;28;20069;-64
2023/01/23 18:05:17;;;;;;;22.17;10.43;;;4.50;99.90;;;;;;5114127;28;20032;-64
2023/01/23 18:07:43;;;;;;;19.77;10.48;;;4.50;99.90;;;;;;5114233;28;20042;-61
2023/01/23 18:10:11;;;;;;;18.95;10.85;;;4.50;99.90;;;;;;5111295;28;20033;-62
2023/01/23 18:12:47;;;;;;;22.80;11.57;;;4.50;99.90;;;;;;5093458;28;20096;-61
2023/01/23 18:15:20;;;;;;;17.67;9.40;;;4.50;99.90;;;;;;5093680;28;20024;-61
2023/01/23 18:17:54;;;;;;;21.08;9.95;;;4.50;99.90;;;;;;5092965;28;20054;-63
2023/01/23 18:20:21;;;;;;;18.67;9.77;;;4.50;99.90;;;;;;5093361;28;20069;-62
2023/01/23 18:22:48;;;;;;;19.17;10.55;;;4.50;99.90;;;;;;5093180;28;20028;-63
2023/01/23 18:25:17;;;;;;;21.65;9.82;;;4.50;99.90;;;;;;5093402;28;20519;-64
2023/01/23 18:27:46;;;;;;;21.50;10.30;;;4.50;99.90;;;;;;5093574;28;20545;-63
2023/01/23 18:30:19;;;;;;;17.75;9.32;;;4.60;99.90;;;;;;5094454;28;20479;-63
2023/01/23 18:32:54;;;;;;;18.48;10.40;;;4.50;99.90;;;;;;5093595;28;20028;-62
2023/01/23 18:35:51;;;;;;;18.45;9.02;;;4.50;99.90;;;;;;5095656;28;20020;-62
2023/01/23 18:38:39;;;;;;;18.00;10.07;;;4.60;99.90;;;;;;5098968;28;20032;-62
2023/01/23 18:41:25;;;;;;;19.45;10.15;;;4.50;99.90;;;;;;5093524;28;20099;-62
2023/01/23 18:44:30;;;;;;;18.58;8.93;;;4.50;99.90;;;;;;5092028;28;20036;-62
2023/01/23 18:46:56;;;;;;;18.15;9.95;;;4.50;99.90;;;;;;5026063;28;20478;-63
2023/01/23 18:49:22;;;;;;;19.75;10.02;;;4.50;99.90;;;;;;5029174;28;20080;-62
2023/01/23 18:52:12;;;;;;;16.30;9.00;;;4.50;99.90;;;;;;5049876;28;20032;-63
2023/01/23 18:54:44;;;;;;;15.98;8.38;;;4.50;99.90;;;;;;5105429;28;20013;-62
2023/01/23 18:57:21;;;;;;;18.90;9.43;;;4.50;99.90;;;;;;5071176;28;20158;-62
2023/01/23 19:00:14;;;;;;;21.42;10.57;;;4.50;99.90;;;;;;5072114;28;20024;-63
2023/01/23 19:02:45;;;;;;;19.75;10.70;;;4.50;99.90;;;;;;5091319;28;20512;-63
2023/01/23 19:05:14;;;;;;;21.05;10.07;;;4.50;99.90;;;;;;5092381;28;20093;-63
2023/01/23 19:07:41;;;;;;;18.80;10.95;;;4.50;99.90;;;;;;5091258;28;20051;-63
2023/01/23 19:10:12;;;;;;;19.55;9.80;;;4.50;99.90;;;;;;5092626;28;20126;-62
2023/01/23 19:12:50;;;;;;;19.20;9.93;;;4.50;99.90;;;;;;5098410;28;20379;-63
2023/01/23 19:15:15;;;;;;;17.58;9.30;;;4.50;99.90;;;;;;5095052;28;20043;-63
2023/01/23 19:17:51;;;;;;;16.92;9.13;;;4.40;99.90;;;;;;5072232;28;20021;-63
2023/01/23 19:20:53;;;;;;;17.08;9.02;;;4.50;99.90;;;;;;5071443;28;20032;-63
2023/01/23 19:23:25;;;;;;;18.65;10.15;;;4.50;99.90;;;;;;5072076;28;20024;-63
2023/01/23 19:25:50;;;;;;;;;;;4.50;99.90;;;;;;5072653;28;20052;-64
2023/01/23 19:28:17;;;;;;;23.02;11.40;;;4.50;99.90;;;;;;5091776;28;19932;-63
2023/01/23 19:30:43;;;;;;;19.92;10.73;;;4.40;99.90;;;;;;5091065;28;20028;-64
2023/01/23 19:33:17;;;;;;;20.52;10.85;;;4.40;99.90;;;;;;5091856;28;20016;-64
2023/01/23 19:35:44;;;;;;;19.17;10.10;;;4.40;99.90;;;;;;5090905;28;20012;-64
2023/01/23 19:38:09;;;;;;;18.02;8.95;;;4.40;99.90;;;;;;5092326;28;20032;-63
2023/01/23 19:40:35;;;;;;;25.77;11.90;;;4.40;99.90;;;;;;5096217;28;20016;-65
